sensor_id;sensor_type;location;lat;lon;timestamp;pressure;altitude;pressure_sealevel;temperature;humidity
48352;BME280;34163;49.314;6.752;2023-01-30T08:56:11;100194.66;;;2.66;100.00
48352;BME280;34163;49.314;6.752;2023-01-30T08:58:36;100192.91;;;2.68;100.00
48352;BME280;34163;49.314;6.752;2023-01-30T09:01:07;100187.66;;;2.78;100.00
48352;BME280;34163;49.314;6.752;2023-01-30T09:03:32;100191.63;;;3.43;100.00
48352;BME280;34163;49.314;6.752;2023-01-30T09:06:00;100196.50;;;3.90;100.00
48352;BME280;34163;49.314;6.752;2023-01-30T09:08:25;100184.00;;;4.18;100.00
48352;BME280;34163;49.314;6.752;2023-01-30T09:13:33;100180.97;;;4.53;100.00
48352;BME280;34163;49.314;6.752;2023-01-30T09:15:58;100179.06;;;4.65;100.00
48352;BME280;34163;49.314;6.752;2023-01-30T09:18:23;100180.72;;;4.73;100.00
48352;BME280;34163;49.314;6.752;2023-01-30T09:20:49;100177.97;;;4.83;100.00
48352;BME280;34163;49.314;6.752;2023-01-30T09:23:14;100175.25;;;4.90;100.00
48352;BME280;34163;49.314;6.752;2023-01-30T09:25:39;100176.88;;;4.98;100.00
48352;BME280;34163;49.314;6.752;2023-01-30T09:28:05;100170.66;;;5.05;100.00
48352;BME280;34163;49.314;6.752;2023-01-30T09:30:38;100157.47;;;5.09;100.00
48352;BME280;34163;49.314;6.752;2023-01-30T09:33:03;100150.38;;;5.16;100.00
48352;BME280;34163;49.314;6.752;2023-01-30T09:35:28;100152.06;;;5.22;100.00
48352;BME280;34163;49.314;6.752;2023-01-30T09:37:54;100157.25;;;5.26;100.00
48352;BME280;34163;49.314;6.752;2023-01-30T09:40:20;100158.03;;;5.32;100.00
48352;BME280;34163;49.314;6.752;2023-01-30T09:42:54;100166.72;;;5.35;100.00
48352;BME280;34163;49.314;6.752;2023-01-30T09:45:43;100176.31;;;5.39;100.00
48352;BME280;34163;49.314;6.752;2023-01-30T09:48:16;100162.22;;;5.42;100.00
48352;BME280;34163;49.314;6.752;2023-01-30T09:53:24;100170.81;;;5.53;100.00
48352;BME280;34163;49.314;6.752;2023-01-30T09:56:01;100163.78;;;5.55;100.00
48352;BME280;34163;49.314;6.752;2023-01-30T09:58:31;100156.69;;;5.60;100.00
48352;BME280;34163;49.314;6.752;2023-01-30T10:01:05;100156.66;;;5.63;100.00
48352;BME280;34163;49.314;6.752;2023-01-30T10:03:38;100146.06;;;5.67;100.00
48352;BME280;34163;49.314;6.752;2023-01-30T10:06:06;100146.03;;;5.70;100.00
48352;BME280;34163;49.314;6.752;2023-01-30T10:08:40;100154.75;;;5.72;100.00
48352;BME280;34163;49.314;6.752;2023-01-30T10:11:50;100152.94;;;5.74;100.00
48352;BME280;34163;49.314;6.752;2023-01-30T10:14:03;100158.19;;;5.75;100.00
48352;BME280;34163;49.314;6.752;2023-01-30T10:26:26;100181.66;;;5.88;100.00
48352;BME280;34163;49.314;6.752;2023-01-30T10:29:02;100179.84;;;5.90;100.00
48352;BME280;34163;49.314;6.752;2023-01-30T10:34:35;100158.75;;;5.93;100.00
48352;BME280;34163;49.314;6.752;2023-01-30T10:39:49;100141.19;;;5.96;100.00
48352;BME280;34163;49.314;6.752;2023-01-30T10:42:20;100134.16;;;5.98;100.00
48352;BME280;34163;49.314;6.752;2023-01-30T10:44:47;100142.84;;;6.02;100.00
48352;BME280;34163;49.314;6.752;2023-01-30T10:50:12;100141.97;;;6.03;100.00
48352;BME280;34163;49.314;6.752;2023-01-30T10:52:44;100144.59;;;6.03;100.00
48352;BME280;34163;49.314;6.752;2023-01-30T10:57:46;100147.09;;;6.08;100.00
48352;BME280;34163;49.314;6.752;2023-01-30T11:05:24;100140.03;;;6.13;100.00
48352;BME280;34163;49.314;6.752;2023-01-30T11:07:51;100143.47;;;6.15;100.00
48352;BME280;34163;49.314;6.752;2023-01-30T11:10:18;100128.59;;;6.14;100.00
48352;BME280;34163;49.314;6.752;2023-01-30T11:12:43;100136.41;;;6.17;100.00
48352;BME280;34163;49.314;6.752;2023-01-30T11:15:09;100132.91;;;6.18;100.00
48352;BME280;34163;49.314;6.752;2023-01-30T11:17:45;100140.13;;;6.07;100.00
48352;BME280;34163;49.314;6.752;2023-01-30T11:20:12;100134.31;;;4.76;100.00
48352;BME280;34163;49.314;6.752;2023-01-30T11:22:43;100143.63;;;4.28;100.00
48352;BME280;34163;49.314;6.752;2023-01-30T11:25:17;100146.41;;;4.14;100.00
48352;BME280;34163;49.314;6.752;2023-01-30T11:27:49;100141.41;;;3.93;100.00
48352;BME280;34163;49.314;6.752;2023-01-30T11:30:16;100139.75;;;3.82;100.00
48352;BME280;34163;49.314;6.752;2023-01-30T11:32:42;100138.06;;;3.75;100.00
48352;BME280;34163;49.314;6.752;2023-01-30T11:37:34;100136.44;;;3.62;100.00
48352;BME280;34163;49.314;6.752;2023-01-30T11:39:59;100132.19;;;3.49;100.00
48352;BME280;34163;49.314;6.752;2023-01-30T11:43:07;100128.69;;;3.53;100.00
48352;BME280;34163;49.314;6.752;2023-01-30T11:45:35;100142.75;;;3.38;100.00
48352;BME280;34163;49.314;6.752;2023-01-30T11:48:04;100136.66;;;3.34;100.00
48352;BME280;34163;49.314;6.752;2023-01-30T11:50:49;100132.34;;;3.25;100.00
48352;BME280;34163;49.314;6.752;2023-01-30T11:53:39;100134.13;;;3.25;100.00
48352;BME280;34163;49.314;6.752;2023-01-30T11:56:07;100130.66;;;3.20;100.00
48352;BME280;34163;49.314;6.752;2023-01-30T11:58:42;100125.47;;;3.15;100.00
48352;BME280;34163;49.314;6.752;2023-01-30T12:01:12;100117.63;;;3.12;100.00
48352;BME280;34163;49.314;6.752;2023-01-30T12:03:44;100125.53;;;3.04;100.00
48352;BME280;34163;49.314;6.752;2023-01-30T12:06:11;100126.41;;;3.08;100.00
48352;BME280;34163;49.314;6.752;2023-01-30T12:08:44;100130.75;;;3.07;100.00
48352;BME280;34163;49.314;6.752;2023-01-30T12:11:23;100120.28;;;3.04;100.00
48352;BME280;34163;49.314;6.752;2023-01-30T12:13:51;100118.59;;;3.00;100.00
48352;BME280;34163;49.314;6.752;2023-01-30T12:16:19;100120.28;;;3.06;100.00
48352;BME280;34163;49.314;6.752;2023-01-30T12:26:12;100117.78;;;2.92;100.00
48352;BME280;34163;49.314;6.752;2023-01-30T12:28:51;100109.97;;;2.83;100.00
48352;BME280;34163;49.314;6.752;2023-01-30T12:31:18;100112.56;;;2.89;100.00
48352;BME280;34163;49.314;6.752;2023-01-30T12:33:47;100104.75;;;2.83;100.00
48352;BME280;34163;49.314;6.752;2023-01-30T12:36:15;100102.97;;;2.85;100.00
48352;BME280;34163;49.314;6.752;2023-01-30T12:49:18;100102.16;;;2.77;100.00
48352;BME280;34163;49.314;6.752;2023-01-30T12:54:34;100122.28;;;2.68;100.00
48352;BME280;34163;49.314;6.752;2023-01-30T12:57:05;100111.78;;;2.73;100.00
48352;BME280;34163;49.314;6.752;2023-01-30T13:02:15;100118.78;;;2.65;100.00
48352;BME280;34163;49.314;6.752;2023-01-30T13:04:59;100110.91;;;2.65;100.00
48352;BME280;34163;49.314;6.752;2023-01-30T13:10:02;100105.81;;;3.70;100.00
48352;BME280;34163;49.314;6.752;2023-01-30T13:15:06;100099.91;;;4.27;100.00
48352;BME280;34163;49.314;6.752;2023-01-30T13:17:54;100097.13;;;4.43;100.00
48352;BME280;34163;49.314;6.752;2023-01-30T13:25:32;100096.63;;;4.78;100.00
48352;BME280;34163;49.314;6.752;2023-01-30T13:28:02;100094.75;;;4.86;100.00
48352;BME280;34163;49.314;6.752;2023-01-30T13:30:30;100090.31;;;4.93;100.00
48352;BME280;34163;49.314;6.752;2023-01-30T13:32:59;100100.69;;;4.99;100.00
48352;BME280;34163;49.314;6.752;2023-01-30T13:35:27;100084.00;;;5.05;100.00
48352;BME280;34163;49.314;6.752;2023-01-30T13:37:54;100090.94;;;5.11;100.00
48352;BME280;34163;49.314;6.752;2023-01-30T13:40:22;100092.56;;;5.16;100.00
48352;BME280;34163;49.314;6.752;2023-01-30T13:42:58;100097.75;;;5.21;100.00
48352;BME280;34163;49.314;6.752;2023-01-30T13:45:27;100099.44;;;5.26;100.00
48352;BME280;34163;49.314;6.752;2023-01-30T13:56:39;100097.44;;;5.41;100.00
48352;BME280;34163;49.314;6.752;2023-01-30T14:09:42;100107.66;;;5.58;100.00
48352;BME280;34163;49.314;6.752;2023-01-30T14:12:15;100094.44;;;5.62;100.00
48352;BME280;34163;49.314;6.752;2023-01-30T14:14:42;100098.78;;;5.65;100.00
48352;BME280;34163;49.314;6.752;2023-01-30T14:17:20;100099.59;;;5.67;100.00
48352;BME280;34163;49.314;6.752;2023-01-30T14:20:04;100097.81;;;5.69;100.00
48352;BME280;34163;49.314;6.752;2023-01-30T14:22:34;100101.31;;;5.71;100.00
48352;BME280;34163;49.314;6.752;2023-01-30T14:27:45;100118.69;;;5.78;100.00
48352;BME280;34163;49.314;6.752;2023-01-30T14:32:55;100124.75;;;5.82;100.00
48352;BME280;34163;49.314;6.752;2023-01-30T14:35:22;100129.97;;;5.83;100.00
48352;BME280;34163;49.314;6.752;2023-01-30T14:37:49;100122.97;;;5.86;100.00
48352;BME280;34163;49.314;6.752;2023-01-30T14:45:41;100140.31;;;5.94;100.00
48352;BME280;34163;49.314;6.752;2023-01-30T14:48:27;100137.66;;;5.96;100.00
48352;BME280;34163;49.314;6.752;2023-01-30T15:06:58;100166.41;;;6.08;100.00
48352;BME280;34163;49.314;6.752;2023-01-30T15:09:25;100176.03;;;6.09;100.00
48352;BME280;34163;49.314;6.752;2023-01-30T15:11:58;100184.78;;;6.11;100.00
48352;BME280;34163;49.314;6.752;2023-01-30T15:14:27;100195.28;;;6.13;100.00
48352;BME280;34163;49.314;6.752;2023-01-30T15:17:00;100200.50;;;6.14;100.00
48352;BME280;34163;49.314;6.752;2023-01-30T15:21:58;100208.38;;;6.16;100.00
48352;BME280;34163;49.314;6.752;2023-01-30T15:24:36;100209.19;;;6.20;100.00
48352;BME280;34163;49.314;6.752;2023-01-30T15:32:15;100230.31;;;4.17;100.00
48352;BME280;34163;49.314;6.752;2023-01-30T15:34:52;100235.63;;;4.08;100.00
48352;BME280;34163;49.314;6.752;2023-01-30T15:42:38;100256.91;;;3.74;100.00
48352;BME280;34163;49.314;6.752;2023-01-30T15:47:51;100274.44;;;3.66;100.00
48352;BME280;34163;49.314;6.752;2023-01-30T15:50:22;100271.03;;;3.52;100.00
48352;BME280;34163;49.314;6.752;2023-01-30T15:52:48;100272.81;;;3.50;100.00
48352;BME280;34163;49.314;6.752;2023-01-30T15:55:31;100270.22;;;3.43;100.00
48352;BME280;34163;49.314;6.752;2023-01-30T15:58:02;100263.22;;;3.45;100.00
48352;BME280;34163;49.314;6.752;2023-01-30T16:00:29;100276.38;;;3.35;100.00
48352;BME280;34163;49.314;6.752;2023-01-30T16:02:56;100281.63;;;3.30;100.00
48352;BME280;34163;49.314;6.752;2023-01-30T16:05:23;100284.25;;;3.25;100.00
48352;BME280;34163;49.314;6.752;2023-01-30T16:07:49;100272.81;;;3.47;100.00
48352;BME280;34163;49.314;6.752;2023-01-30T16:10:16;100293.88;;;3.25;100.00
48352;BME280;34163;49.314;6.752;2023-01-30T16:12:42;100294.81;;;3.18;100.00
48352;BME280;34163;49.314;6.752;2023-01-30T16:15:14;100302.69;;;3.13;100.00
48352;BME280;34163;49.314;6.752;2023-01-30T16:17:40;100307.06;;;3.09;100.00
48352;BME280;34163;49.314;6.752;2023-01-30T16:20:10;100312.31;;;3.08;100.00
48352;BME280;34163;49.314;6.752;2023-01-30T16:22:36;100314.03;;;3.03;100.00
48352;BME280;34163;49.314;6.752;2023-01-30T16:25:10;100322.78;;;3.02;100.00
48352;BME280;34163;49.314;6.752;2023-01-30T16:27:39;100332.38;;;3.01;100.00
48352;BME280;34163;49.314;6.752;2023-01-30T16:30:05;100328.06;;;2.96;100.00
48352;BME280;34163;49.314;6.752;2023-01-30T16:32:33;100338.53;;;2.94;100.00
48352;BME280;34163;49.314;6.752;2023-01-30T16:37:44;100344.63;;;2.90;100.00
48352;BME280;34163;49.314;6.752;2023-01-30T16:42:34;100345.53;;;2.87;100.00
48352;BME280;34163;49.314;6.752;2023-01-30T16:45:20;100345.53;;;2.84;100.00
48352;BME280;34163;49.314;6.752;2023-01-30T16:48:43;100331.56;;;2.82;100.00
48352;BME280;34163;49.314;6.752;2023-01-30T16:50:44;100341.16;;;2.79;100.00
48352;BME280;34163;49.314;6.752;2023-01-30T16:53:14;100345.53;;;2.78;100.00
48352;BME280;34163;49.314;6.752;2023-01-30T16:55:41;100349.91;;;2.78;100.00
48352;BME280;34163;49.314;6.752;2023-01-30T16:58:18;100353.41;;;2.73;100.00
48352;BME280;34163;49.314;6.752;2023-01-30T17:00:43;100359.50;;;2.76;100.00
48352;BME280;34163;49.314;6.752;2023-01-30T17:03:23;100367.34;;;2.76;100.00
48352;BME280;34163;49.314;6.752;2023-01-30T17:05:50;100358.63;;;2.73;100.00
48352;BME280;34163;49.314;6.752;2023-01-30T17:11:08;100358.63;;;2.70;100.00
48352;BME280;34163;49.314;6.752;2023-01-30T17:13:38;100367.34;;;2.69;100.00
48352;BME280;34163;49.314;6.752;2023-01-30T17:18:44;100385.66;;;2.65;100.00
48352;BME280;34163;49.314;6.752;2023-01-30T17:21:10;100385.72;;;2.63;100.00
48352;BME280;34163;49.314;6.752;2023-01-30T17:23:37;100393.56;;;2.60;100.00
48352;BME280;34163;49.314;6.752;2023-01-30T17:26:02;100400.50;;;2.61;100.00
48352;BME280;34163;49.314;6.752;2023-01-30T17:28:33;100398.78;;;2.62;100.00
48352;BME280;34163;49.314;6.752;2023-01-30T17:31:13;100401.41;;;2.57;100.00
48352;BME280;34163;49.314;6.752;2023-01-30T17:33:38;100398.78;;;2.57;100.00
48352;BME280;34163;49.314;6.752;2023-01-30T17:36:04;100402.25;;;2.56;100.00
48352;BME280;34163;49.314;6.752;2023-01-30T17:38:30;100405.75;;;2.52;100.00
48352;BME280;34163;49.314;6.752;2023-01-30T17:40:58;100402.25;;;2.51;100.00
48352;BME280;34163;49.314;6.752;2023-01-30T17:43:26;100402.25;;;2.51;100.00
48352;BME280;34163;49.314;6.752;2023-01-30T17:45:51;100408.34;;;2.50;100.00
48352;BME280;34163;49.314;6.752;2023-01-30T17:48:16;100409.25;;;2.51;100.00
48352;BME280;34163;49.314;6.752;2023-01-30T17:50:42;100424.06;;;2.49;100.00
48352;BME280;34163;49.314;6.752;2023-01-30T17:53:07;100413.63;;;2.46;100.00
48352;BME280;34163;49.314;6.752;2023-01-30T17:55:32;100420.56;;;2.47;100.00
48352;BME280;34163;49.314;6.752;2023-01-30T17:57:58;100419.72;;;2.45;100.00
48352;BME280;34163;49.314;6.752;2023-01-30T18:00:24;100417.94;;;2.47;100.00
48352;BME280;34163;49.314;6.752;2023-01-30T18:02:49;100426.69;;;2.46;100.00
48352;BME280;34163;49.314;6.752;2023-01-30T18:05:14;100427.56;;;2.45;100.00
48352;BME280;34163;49.314;6.752;2023-01-30T18:07:40;100431.94;;;2.46;100.00
48352;BME280;34163;49.314;6.752;2023-01-30T18:10:06;100438.03;;;2.45;100.00
48352;BME280;34163;49.314;6.752;2023-01-30T18:12:35;100435.41;;;2.45;100.00
48352;BME280;34163;49.314;6.752;2023-01-30T18:15:11;100439.78;;;2.44;100.00
48352;BME280;34163;49.314;6.752;2023-01-30T18:17:56;100439.78;;;2.43;100.00
48352;BME280;34163;49.314;6.752;2023-01-30T18:20:22;100440.63;;;2.42;100.00
48352;BME280;34163;49.314;6.752;2023-01-30T18:22:47;100449.34;;;2.44;100.00
48352;BME280;34163;49.314;6.752;2023-01-30T18:25:15;100449.34;;;2.39;100.00
48352;BME280;34163;49.314;6.752;2023-01-30T18:27:41;100458.06;;;2.64;100.00
48352;BME280;34163;49.314;6.752;2023-01-30T18:30:08;100461.56;;;2.93;100.00
48352;BME280;34163;49.314;6.752;2023-01-30T18:32:37;100467.59;;;3.30;100.00
48352;BME280;34163;49.314;6.752;2023-01-30T18:35:03;100467.47;;;3.73;100.00
48352;BME280;34163;49.314;6.752;2023-01-30T18:40:01;100476.88;;;4.16;100.00
48352;BME280;34163;49.314;6.752;2023-01-30T18:42:27;100477.69;;;4.30;100.00
48352;BME280;34163;49.314;6.752;2023-01-30T18:44:54;100481.13;;;4.40;100.00
48352;BME280;34163;49.314;6.752;2023-01-30T18:50:32;100480.13;;;4.61;100.00
48352;BME280;34163;49.314;6.752;2023-01-30T18:53:10;100488.81;;;4.68;100.00
48352;BME280;34163;49.314;6.752;2023-01-30T18:55:56;100488.78;;;4.74;100.00
48352;BME280;34163;49.314;6.752;2023-01-30T18:58:23;100483.44;;;4.80;100.00
48352;BME280;34163;49.314;6.752;2023-01-30T19:01:18;100484.28;;;4.87;100.00
48352;BME280;34163;49.314;6.752;2023-01-30T19:03:44;100490.38;;;4.90;100.00
48352;BME280;34163;49.314;6.752;2023-01-30T19:06:15;100488.56;;;4.96;100.00
48352;BME280;34163;49.314;6.752;2023-01-30T19:09:02;100500.81;;;5.00;100.00
48352;BME280;34163;49.314;6.752;2023-01-30T19:11:30;100506.03;;;5.03;100.00
48352;BME280;34163;49.314;6.752;2023-01-30T19:14:23;100512.13;;;5.06;100.00
48352;BME280;34163;49.314;6.752;2023-01-30T19:17:06;100507.69;;;5.12;100.00
48352;BME280;34163;49.314;6.752;2023-01-30T19:19:31;100506.53;;;5.42;100.00
48352;BME280;34163;49.314;6.752;2023-01-30T19:21:57;100515.44;;;5.28;100.00
48352;BME280;34163;49.314;6.752;2023-01-30T19:24:22;100519.88;;;5.25;100.00
48352;BME280;34163;49.314;6.752;2023-01-30T19:26:47;100519.84;;;5.26;100.00
48352;BME280;34163;49.314;6.752;2023-01-30T19:29:13;100532.94;;;5.30;100.00
48352;BME280;34163;49.314;6.752;2023-01-30T19:31:38;100525.94;;;5.30;100.00
48352;BME280;34163;49.314;6.752;2023-01-30T19:34:04;100525.91;;;5.33;100.00
48352;BME280;34163;49.314;6.752;2023-01-30T19:36:30;100535.50;;;5.36;100.00
48352;BME280;34163;49.314;6.752;2023-01-30T19:38:56;100533.75;;;5.38;100.00
48352;BME280;34163;49.314;6.752;2023-01-30T19:41:23;100540.72;;;5.39;100.00
48352;BME280;34163;49.314;6.752;2023-01-30T19:43:49;100538.97;;;5.41;100.00
48352;BME280;34163;49.314;6.752;2023-01-30T19:46:14;100539.84;;;5.43;100.00
48352;BME280;34163;49.314;6.752;2023-01-30T19:48:42;100541.56;;;5.44;100.00
48352;BME280;34163;49.314;6.752;2023-01-30T19:51:09;100546.78;;;5.47;100.00
48352;BME280;34163;49.314;6.752;2023-01-30T19:53:37;100552.03;;;5.49;100.00
48352;BME280;34163;49.314;6.752;2023-01-30T19:56:02;100551.13;;;5.51;100.00
48352;BME280;34163;49.314;6.752;2023-01-30T19:58:27;100556.38;;;5.54;100.00
48352;BME280;34163;49.314;6.752;2023-01-30T20:00:53;100564.25;;;5.54;100.00
48352;BME280;34163;49.314;6.752;2023-01-30T20:03:18;100554.59;;;5.56;100.00
48352;BME280;34163;49.314;6.752;2023-01-30T20:05:43;100547.59;;;5.57;100.00
48352;BME280;34163;49.314;6.752;2023-01-30T20:08:09;100544.03;;;5.61;100.00
48352;BME280;34163;49.314;6.752;2023-01-30T20:10:35;100544.00;;;5.62;100.00
48352;BME280;34163;49.314;6.752;2023-01-30T20:13:00;100549.28;;;5.62;100.00
48352;BME280;34163;49.314;6.752;2023-01-30T20:15:26;100546.63;;;5.64;100.00
48352;BME280;34163;49.314;6.752;2023-01-30T20:17:51;100550.09;;;5.66;100.00
48352;BME280;34163;49.314;6.752;2023-01-30T20:20:16;100554.47;;;5.69;100.00
48352;BME280;34163;49.314;6.752;2023-01-30T20:22:44;100557.97;;;5.69;100.00
48352;BME280;34163;49.314;6.752;2023-01-30T20:25:09;100562.34;;;5.70;100.00
48352;BME280;34163;49.314;6.752;2023-01-30T20:27:35;100564.97;;;5.72;100.00
48352;BME280;34163;49.314;6.752;2023-01-30T20:30:00;100568.44;;;5.74;100.00
48352;BME280;34163;49.314;6.752;2023-01-30T20:32:25;100573.69;;;5.75;100.00
48352;BME280;34163;49.314;6.752;2023-01-30T20:34:51;100566.66;;;5.76;100.00
48352;BME280;34163;49.314;6.752;2023-01-30T20:37:16;100577.13;;;5.79;100.00
48352;BME280;34163;49.314;6.752;2023-01-30T20:39:41;100577.13;;;5.80;100.00
48352;BME280;34163;49.314;6.752;2023-01-30T20:42:07;100581.50;;;5.81;100.00
48352;BME280;34163;49.314;6.752;2023-01-30T20:44:32;100592.00;;;5.83;100.00
48352;BME280;34163;49.314;6.752;2023-01-30T20:46:59;100598.13;;;5.85;100.00
48352;BME280;34163;49.314;6.752;2023-01-30T20:49:24;100592.84;;;5.85;100.00
48352;BME280;34163;49.314;6.752;2023-01-30T20:51:51;100589.34;;;5.86;100.00
48352;BME280;34163;49.314;6.752;2023-01-30T20:54:17;100587.56;;;5.88;100.00
48352;BME280;34163;49.314;6.752;2023-01-30T20:56:43;100598.09;;;5.88;100.00
48352;BME280;34163;49.314;6.752;2023-01-30T20:59:10;100596.31;;;5.90;100.00
48352;BME280;34163;49.314;6.752;2023-01-30T21:01:36;100598.03;;;5.93;100.00
48352;BME280;34163;49.314;6.752;2023-01-30T21:04:06;100600.66;;;5.94;100.00
48352;BME280;34163;49.314;6.752;2023-01-30T21:06:32;100601.53;;;5.93;100.00
48352;BME280;34163;49.314;6.752;2023-01-30T21:08:57;100607.66;;;5.95;100.00
48352;BME280;34163;49.314;6.752;2023-01-30T21:11:23;100609.41;;;5.96;100.00
48352;BME280;34163;49.314;6.752;2023-01-30T21:13:48;100606.78;;;5.96;100.00
48352;BME280;34163;49.314;6.752;2023-01-30T21:18:40;100632.22;;;5.99;100.00
48352;BME280;34163;49.314;6.752;2023-01-30T21:21:06;100629.56;;;6.00;100.00
48352;BME280;34163;49.314;6.752;2023-01-30T21:23:32;100641.84;;;6.02;100.00
48352;BME280;34163;49.314;6.752;2023-01-30T21:26:04;100631.25;;;6.05;100.00
48352;BME280;34163;49.314;6.752;2023-01-30T21:28:29;100639.19;;;6.03;100.00
48352;BME280;34163;49.314;6.752;2023-01-30T21:30:56;100635.66;;;6.04;100.00
48352;BME280;34163;49.314;6.752;2023-01-30T21:33:27;100650.56;;;6.07;100.00
48352;BME280;34163;49.314;6.752;2023-01-30T21:35:55;100654.91;;;6.06;100.00
48352;BME280;34163;49.314;6.752;2023-01-30T21:38:21;100653.16;;;6.08;100.00
48352;BME280;34163;49.314;6.752;2023-01-30T21:41:06;100659.28;;;6.09;100.00
48352;BME280;34163;49.314;6.752;2023-01-30T21:43:51;100659.28;;;6.09;100.00
48352;BME280;34163;49.314;6.752;2023-01-30T21:46:16;100661.03;;;6.10;100.00
48352;BME280;34163;49.314;6.752;2023-01-30T21:48:41;100664.53;;;6.12;100.00
48352;BME280;34163;49.314;6.752;2023-01-30T21:51:07;100666.28;;;6.11;100.00
48352;BME280;34163;49.314;6.752;2023-01-30T21:53:33;100668.91;;;6.14;100.00
48352;BME280;34163;49.314;6.752;2023-01-30T21:55:58;100670.63;;;6.14;100.00
48352;BME280;34163;49.314;6.752;2023-01-30T21:58:23;100670.63;;;6.14;100.00
48352;BME280;34163;49.314;6.752;2023-01-30T22:00:49;100673.22;;;6.17;100.00
48352;BME280;34163;49.314;6.752;2023-01-30T22:03:14;100664.47;;;6.16;100.00
48352;BME280;34163;49.314;6.752;2023-01-30T22:05:41;100671.50;;;6.16;100.00
48352;BME280;34163;49.314;6.752;2023-01-30T22:08:07;100683.75;;;6.17;100.00
48352;BME280;34163;49.314;6.752;2023-01-30T22:10:32;100680.69;;;5.69;100.00
48352;BME280;34163;49.314;6.752;2023-01-30T22:12:57;100678.72;;;4.65;100.00
48352;BME280;34163;49.314;6.752;2023-01-30T22:15:23;100683.25;;;4.25;100.00
48352;BME280;34163;49.314;6.752;2023-01-30T22:17:48;100688.53;;;4.05;100.00
48352;BME280;34163;49.314;6.752;2023-01-30T22:20:13;100676.31;;;3.90;100.00
48352;BME280;34163;49.314;6.752;2023-01-30T22:22:38;100686.81;;;3.80;100.00
48352;BME280;34163;49.314;6.752;2023-01-30T22:25:04;100675.47;;;3.71;100.00
48352;BME280;34163;49.314;6.752;2023-01-30T22:27:29;100686.78;;;3.59;100.00
48352;BME280;34163;49.314;6.752;2023-01-30T22:29:54;100692.06;;;3.51;100.00
48352;BME280;34163;49.314;6.752;2023-01-30T22:32:20;100686.81;;;3.43;100.00
48352;BME280;34163;49.314;6.752;2023-01-30T22:34:45;100685.03;;;3.39;100.00
48352;BME280;34163;49.314;6.752;2023-01-30T22:37:10;100685.03;;;3.35;100.00
48352;BME280;34163;49.314;6.752;2023-01-30T22:39:36;100692.88;;;3.32;100.00
48352;BME280;34163;49.314;6.752;2023-01-30T22:42:01;100693.78;;;3.26;100.00
48352;BME280;34163;49.314;6.752;2023-01-30T22:44:26;100697.25;;;3.19;100.00
48352;BME280;34163;49.314;6.752;2023-01-30T22:46:51;100695.50;;;3.18;100.00
48352;BME280;34163;49.314;6.752;2023-01-30T22:49:17;100697.22;;;3.13;100.00
48352;BME280;34163;49.314;6.752;2023-01-30T22:51:42;100698.97;;;3.07;100.00
48352;BME280;34163;49.314;6.752;2023-01-30T22:54:11;100703.34;;;3.05;100.00
48352;BME280;34163;49.314;6.752;2023-01-30T22:56:40;100702.47;;;3.03;100.00
48352;BME280;34163;49.314;6.752;2023-01-30T22:59:06;100712.03;;;3.00;100.00
48352;BME280;34163;49.314;6.752;2023-01-30T23:01:32;100708.53;;;2.98;100.00
48352;BME280;34163;49.314;6.752;2023-01-30T23:03:59;100705.91;;;2.96;100.00
48352;BME280;34163;49.314;6.752;2023-01-30T23:06:27;100716.38;;;2.96;100.00
48352;BME280;34163;49.314;6.752;2023-01-30T23:08:55;100714.66;;;2.90;100.00
48352;BME280;34163;49.314;6.752;2023-01-30T23:11:22;100725.13;;;2.92;100.00
48352;BME280;34163;49.314;6.752;2023-01-30T23:13:51;100728.59;;;2.86;100.00
48352;BME280;34163;49.314;6.752;2023-01-30T23:16:20;100718.94;;;2.81;100.00
48352;BME280;34163;49.314;6.752;2023-01-30T23:18:45;100727.69;;;2.81;100.00
48352;BME280;34163;49.314;6.752;2023-01-30T23:21:33;100723.31;;;2.79;100.00
48352;BME280;34163;49.314;6.752;2023-01-30T23:24:00;100733.75;;;2.72;100.00
48352;BME280;34163;49.314;6.752;2023-01-30T23:26:28;100725.03;;;2.72;100.00
48352;BME280;34163;49.314;6.752;2023-01-30T23:28:56;100728.53;;;2.72;100.00
48352;BME280;34163;49.314;6.752;2023-01-30T23:31:23;100728.50;;;2.71;100.00
48352;BME280;34163;49.314;6.752;2023-01-30T23:33:54;100732.00;;;2.68;100.00
48352;BME280;34163;49.314;6.752;2023-01-30T23:36:22;100727.66;;;2.70;100.00
48352;BME280;34163;49.314;6.752;2023-01-30T23:38:48;100722.41;;;2.67;100.00
48352;BME280;34163;49.314;6.752;2023-01-30T23:41:15;100725.88;;;2.63;100.00
48352;BME280;34163;49.314;6.752;2023-01-30T23:43:41;100725.00;;;2.64;100.00
48352;BME280;34163;49.314;6.752;2023-01-30T23:49:12;100735.44;;;2.61;100.00
48352;BME280;34163;49.314;6.752;2023-01-30T23:51:46;100723.25;;;2.57;100.00
48352;BME280;34163;49.314;6.752;2023-01-30T23:54:14;100731.94;;;2.56;100.00
48352;BME280;34163;49.314;6.752;2023-01-30T23:56:48;100721.47;;;2.53;100.00
48352;BME280;34163;49.314;6.752;2023-01-30T23:59:13;100729.31;;;2.53;100.00
